sensor_id;sensor_type;location;lat;lon;timestamp;P1;durP1;ratioP1;P2;durP2;ratioP2
17850;SDS011;9051;51.548;14.348;2022-12-24T00:00:34;11.77;;;7.83;;
17850;SDS011;9051;51.548;14.348;2022-12-24T00:03:06;10.50;;;7.97;;
17850;SDS011;9051;51.548;14.348;2022-12-24T00:05:40;13.27;;;8.47;;
17850;SDS011;9051;51.548;14.348;2022-12-24T00:08:12;10.93;;;8.20;;
17850;SDS011;9051;51.548;14.348;2022-12-24T00:10:44;10.73;;;8.07;;
17850;SDS011;9051;51.548;14.348;2022-12-24T00:13:20;11.97;;;8.60;;
17850;SDS011;9051;51.548;14.348;2022-12-24T00:15:52;9.97;;;7.67;;
17850;SDS011;9051;51.548;14.348;2022-12-24T00:18:24;13.00;;;8.43;;
17850;SDS011;9051;51.548;14.348;2022-12-24T00:20:57;10.17;;;7.77;;
17850;SDS011;9051;51.548;14.348;2022-12-24T00:23:31;13.03;;;7.90;;
17850;SDS011;9051;51.548;14.348;2022-12-24T00:26:03;12.43;;;8.13;;
17850;SDS011;9051;51.548;14.348;2022-12-24T00:28:35;11.13;;;7.70;;
17850;SDS011;9051;51.548;14.348;2022-12-24T00:31:08;10.97;;;7.43;;
17850;SDS011;9051;51.548;14.348;2022-12-24T00:33:42;12.43;;;7.60;;
17850;SDS011;9051;51.548;14.348;2022-12-24T00:36:17;11.77;;;7.80;;
17850;SDS011;9051;51.548;14.348;2022-12-24T00:38:50;9.87;;;7.50;;
17850;SDS011;9051;51.548;14.348;2022-12-24T00:41:22;10.27;;;8.03;;
17850;SDS011;9051;51.548;14.348;2022-12-24T00:43:58;11.67;;;7.43;;
17850;SDS011;9051;51.548;14.348;2022-12-24T00:46:32;7.97;;;7.10;;
17850;SDS011;9051;51.548;14.348;2022-12-24T00:49:05;9.17;;;6.87;;
17850;SDS011;9051;51.548;14.348;2022-12-24T00:51:39;9.87;;;7.00;;
17850;SDS011;9051;51.548;14.348;2022-12-24T00:54:11;10.30;;;7.33;;
17850;SDS011;9051;51.548;14.348;2022-12-24T00:56:44;7.80;;;6.70;;
17850;SDS011;9051;51.548;14.348;2022-12-24T00:59:16;8.90;;;7.10;;
17850;SDS011;9051;51.548;14.348;2022-12-24T01:01:48;8.77;;;7.10;;
17850;SDS011;9051;51.548;14.348;2022-12-24T01:04:20;9.53;;;6.80;;
17850;SDS011;9051;51.548;14.348;2022-12-24T01:07:10;8.00;;;6.67;;
17850;SDS011;9051;51.548;14.348;2022-12-24T01:09:42;8.83;;;6.70;;
17850;SDS011;9051;51.548;14.348;2022-12-24T01:12:14;9.70;;;6.97;;
17850;SDS011;9051;51.548;14.348;2022-12-24T01:14:46;7.97;;;6.23;;
17850;SDS011;9051;51.548;14.348;2022-12-24T01:17:18;8.23;;;6.20;;
17850;SDS011;9051;51.548;14.348;2022-12-24T01:19:50;9.57;;;6.60;;
17850;SDS011;9051;51.548;14.348;2022-12-24T01:22:24;7.53;;;6.73;;
17850;SDS011;9051;51.548;14.348;2022-12-24T01:24:56;8.07;;;6.60;;
17850;SDS011;9051;51.548;14.348;2022-12-24T01:27:28;6.60;;;5.90;;
17850;SDS011;9051;51.548;14.348;2022-12-24T01:30:02;8.47;;;6.30;;
17850;SDS011;9051;51.548;14.348;2022-12-24T01:32:35;7.57;;;6.40;;
17850;SDS011;9051;51.548;14.348;2022-12-24T01:35:07;6.97;;;5.93;;
17850;SDS011;9051;51.548;14.348;2022-12-24T01:37:41;6.23;;;5.63;;
17850;SDS011;9051;51.548;14.348;2022-12-24T01:40:14;8.27;;;5.27;;
17850;SDS011;9051;51.548;14.348;2022-12-24T01:43:08;6.37;;;4.97;;
17850;SDS011;9051;51.548;14.348;2022-12-24T01:45:54;7.57;;;5.07;;
17850;SDS011;9051;51.548;14.348;2022-12-24T01:48:30;5.10;;;4.60;;
17850;SDS011;9051;51.548;14.348;2022-12-24T01:51:07;4.97;;;4.30;;
17850;SDS011;9051;51.548;14.348;2022-12-24T01:53:49;7.73;;;4.50;;
17850;SDS011;9051;51.548;14.348;2022-12-24T01:56:25;6.30;;;4.20;;
17850;SDS011;9051;51.548;14.348;2022-12-24T01:59:01;6.33;;;4.07;;
17850;SDS011;9051;51.548;14.348;2022-12-24T02:01:35;4.47;;;3.90;;
17850;SDS011;9051;51.548;14.348;2022-12-24T02:04:10;5.50;;;3.80;;
17850;SDS011;9051;51.548;14.348;2022-12-24T02:06:54;4.10;;;3.30;;
17850;SDS011;9051;51.548;14.348;2022-12-24T02:09:27;3.67;;;3.07;;
17850;SDS011;9051;51.548;14.348;2022-12-24T02:12:00;3.43;;;3.07;;
17850;SDS011;9051;51.548;14.348;2022-12-24T02:14:33;4.00;;;3.60;;
17850;SDS011;9051;51.548;14.348;2022-12-24T02:17:07;4.70;;;3.10;;
17850;SDS011;9051;51.548;14.348;2022-12-24T02:26:10;4.37;;;2.70;;
17850;SDS011;9051;51.548;14.348;2022-12-24T03:05:37;5.67;;;2.47;;
17850;SDS011;9051;51.548;14.348;2022-12-24T03:08:15;3.97;;;1.97;;
17850;SDS011;9051;51.548;14.348;2022-12-24T03:11:01;5.50;;;2.60;;
17850;SDS011;9051;51.548;14.348;2022-12-24T03:13:38;4.37;;;2.27;;
17850;SDS011;9051;51.548;14.348;2022-12-24T03:16:11;4.47;;;2.30;;
17850;SDS011;9051;51.548;14.348;2022-12-24T03:18:47;8.67;;;2.93;;
17850;SDS011;9051;51.548;14.348;2022-12-24T03:21:23;7.23;;;2.60;;
17850;SDS011;9051;51.548;14.348;2022-12-24T03:23:59;4.90;;;2.43;;
17850;SDS011;9051;51.548;14.348;2022-12-24T03:26:31;7.80;;;2.87;;
17850;SDS011;9051;51.548;14.348;2022-12-24T03:29:04;6.03;;;2.60;;
17850;SDS011;9051;51.548;14.348;2022-12-24T03:31:41;4.70;;;2.37;;
17850;SDS011;9051;51.548;14.348;2022-12-24T03:34:14;8.17;;;2.87;;
17850;SDS011;9051;51.548;14.348;2022-12-24T03:36:49;5.80;;;2.73;;
17850;SDS011;9051;51.548;14.348;2022-12-24T03:39:22;3.40;;;2.57;;
17850;SDS011;9051;51.548;14.348;2022-12-24T03:41:54;4.90;;;2.87;;
17850;SDS011;9051;51.548;14.348;2022-12-24T03:44:27;5.90;;;2.80;;
17850;SDS011;9051;51.548;14.348;2022-12-24T03:46:59;6.60;;;3.17;;
17850;SDS011;9051;51.548;14.348;2022-12-24T03:49:31;8.27;;;3.50;;
17850;SDS011;9051;51.548;14.348;2022-12-24T03:52:04;6.63;;;2.93;;
17850;SDS011;9051;51.548;14.348;2022-12-24T03:54:36;4.70;;;2.70;;
17850;SDS011;9051;51.548;14.348;2022-12-24T04:01:27;5.67;;;2.90;;
17850;SDS011;9051;51.548;14.348;2022-12-24T04:03:59;6.60;;;3.23;;
17850;SDS011;9051;51.548;14.348;2022-12-24T04:06:32;8.20;;;3.70;;
17850;SDS011;9051;51.548;14.348;2022-12-24T04:09:06;7.53;;;3.10;;
17850;SDS011;9051;51.548;14.348;2022-12-24T04:11:38;5.77;;;3.07;;
17850;SDS011;9051;51.548;14.348;2022-12-24T04:14:10;7.03;;;2.93;;
17850;SDS011;9051;51.548;14.348;2022-12-24T04:16:42;7.03;;;3.03;;
17850;SDS011;9051;51.548;14.348;2022-12-24T04:19:16;7.43;;;2.90;;
17850;SDS011;9051;51.548;14.348;2022-12-24T04:21:47;11.17;;;4.03;;
17850;SDS011;9051;51.548;14.348;2022-12-24T04:24:24;5.93;;;3.30;;
17850;SDS011;9051;51.548;14.348;2022-12-24T04:26:56;9.73;;;3.57;;
17850;SDS011;9051;51.548;14.348;2022-12-24T04:29:27;7.03;;;3.40;;
17850;SDS011;9051;51.548;14.348;2022-12-24T04:32:01;7.10;;;3.30;;
17850;SDS011;9051;51.548;14.348;2022-12-24T04:34:33;9.60;;;3.50;;
17850;SDS011;9051;51.548;14.348;2022-12-24T04:37:05;8.57;;;3.10;;
17850;SDS011;9051;51.548;14.348;2022-12-24T04:39:40;8.40;;;3.30;;
17850;SDS011;9051;51.548;14.348;2022-12-24T04:42:12;7.37;;;3.27;;
17850;SDS011;9051;51.548;14.348;2022-12-24T04:44:46;8.10;;;3.20;;
17850;SDS011;9051;51.548;14.348;2022-12-24T04:47:18;7.23;;;3.23;;
17850;SDS011;9051;51.548;14.348;2022-12-24T04:49:50;7.07;;;3.33;;
17850;SDS011;9051;51.548;14.348;2022-12-24T04:52:22;9.60;;;3.57;;
17850;SDS011;9051;51.548;14.348;2022-12-24T04:54:55;7.53;;;3.33;;
17850;SDS011;9051;51.548;14.348;2022-12-24T04:57:29;10.30;;;3.83;;
17850;SDS011;9051;51.548;14.348;2022-12-24T05:00:05;6.20;;;3.30;;
17850;SDS011;9051;51.548;14.348;2022-12-24T05:02:38;7.43;;;3.17;;
17850;SDS011;9051;51.548;14.348;2022-12-24T05:05:10;8.40;;;3.47;;
17850;SDS011;9051;51.548;14.348;2022-12-24T05:07:42;6.60;;;2.93;;
17850;SDS011;9051;51.548;14.348;2022-12-24T06:28:39;2.20;;;2.00;;
17850;SDS011;9051;51.548;14.348;2022-12-24T06:31:13;2.57;;;2.00;;
17850;SDS011;9051;51.548;14.348;2022-12-24T06:42:07;2.77;;;1.80;;
17850;SDS011;9051;51.548;14.348;2022-12-24T06:45:01;2.37;;;1.97;;
17850;SDS011;9051;51.548;14.348;2022-12-24T06:47:33;2.87;;;1.97;;
17850;SDS011;9051;51.548;14.348;2022-12-24T06:50:06;1.73;;;1.53;;
17850;SDS011;9051;51.548;14.348;2022-12-24T06:52:38;2.37;;;1.80;;
17850;SDS011;9051;51.548;14.348;2022-12-24T06:55:10;1.80;;;1.70;;
17850;SDS011;9051;51.548;14.348;2022-12-24T06:57:43;2.13;;;1.87;;
17850;SDS011;9051;51.548;14.348;2022-12-24T07:00:16;3.60;;;2.10;;
17850;SDS011;9051;51.548;14.348;2022-12-24T07:02:50;1.80;;;1.70;;
17850;SDS011;9051;51.548;14.348;2022-12-24T07:05:23;2.83;;;2.27;;
17850;SDS011;9051;51.548;14.348;2022-12-24T07:07:54;4.43;;;2.10;;
17850;SDS011;9051;51.548;14.348;2022-12-24T07:10:27;3.13;;;2.13;;
17850;SDS011;9051;51.548;14.348;2022-12-24T07:12:59;3.10;;;2.80;;
17850;SDS011;9051;51.548;14.348;2022-12-24T07:15:32;3.67;;;2.40;;
17850;SDS011;9051;51.548;14.348;2022-12-24T07:18:04;2.30;;;2.10;;
17850;SDS011;9051;51.548;14.348;2022-12-24T07:20:36;2.53;;;2.33;;
17850;SDS011;9051;51.548;14.348;2022-12-24T07:23:08;1.73;;;1.63;;
17850;SDS011;9051;51.548;14.348;2022-12-24T07:25:41;2.13;;;1.80;;
17850;SDS011;9051;51.548;14.348;2022-12-24T07:28:13;1.93;;;1.50;;
17850;SDS011;9051;51.548;14.348;2022-12-24T07:30:48;2.67;;;1.90;;
17850;SDS011;9051;51.548;14.348;2022-12-24T07:33:20;4.03;;;2.43;;
17850;SDS011;9051;51.548;14.348;2022-12-24T07:35:59;5.00;;;2.57;;
17850;SDS011;9051;51.548;14.348;2022-12-24T07:38:32;5.80;;;2.87;;
17850;SDS011;9051;51.548;14.348;2022-12-24T07:41:05;6.13;;;2.53;;
17850;SDS011;9051;51.548;14.348;2022-12-24T07:43:37;6.27;;;3.00;;
17850;SDS011;9051;51.548;14.348;2022-12-24T07:46:10;7.83;;;3.10;;
17850;SDS011;9051;51.548;14.348;2022-12-24T07:48:42;4.90;;;2.60;;
17850;SDS011;9051;51.548;14.348;2022-12-24T07:51:14;8.57;;;2.87;;
17850;SDS011;9051;51.548;14.348;2022-12-24T07:53:46;6.70;;;2.77;;
17850;SDS011;9051;51.548;14.348;2022-12-24T07:56:18;7.07;;;2.90;;
17850;SDS011;9051;51.548;14.348;2022-12-24T07:58:50;7.87;;;2.80;;
17850;SDS011;9051;51.548;14.348;2022-12-24T08:01:24;5.07;;;2.77;;
17850;SDS011;9051;51.548;14.348;2022-12-24T08:03:56;6.23;;;3.20;;
17850;SDS011;9051;51.548;14.348;2022-12-24T08:06:28;6.87;;;2.57;;
17850;SDS011;9051;51.548;14.348;2022-12-24T08:09:00;5.60;;;2.93;;
17850;SDS011;9051;51.548;14.348;2022-12-24T08:11:32;7.30;;;2.53;;
17850;SDS011;9051;51.548;14.348;2022-12-24T08:14:04;6.93;;;3.10;;
17850;SDS011;9051;51.548;14.348;2022-12-24T08:16:37;9.00;;;2.83;;
17850;SDS011;9051;51.548;14.348;2022-12-24T08:19:09;8.47;;;3.00;;
17850;SDS011;9051;51.548;14.348;2022-12-24T08:21:41;7.43;;;3.00;;
17850;SDS011;9051;51.548;14.348;2022-12-24T08:24:13;7.77;;;3.10;;
17850;SDS011;9051;51.548;14.348;2022-12-24T08:26:47;7.17;;;2.90;;
17850;SDS011;9051;51.548;14.348;2022-12-24T08:29:19;7.67;;;2.93;;
17850;SDS011;9051;51.548;14.348;2022-12-24T08:31:52;7.20;;;3.00;;
17850;SDS011;9051;51.548;14.348;2022-12-24T08:34:24;5.97;;;2.70;;
17850;SDS011;9051;51.548;14.348;2022-12-24T08:36:57;7.77;;;2.90;;
17850;SDS011;9051;51.548;14.348;2022-12-24T08:39:29;11.17;;;3.30;;
17850;SDS011;9051;51.548;14.348;2022-12-24T08:42:01;7.50;;;2.97;;
17850;SDS011;9051;51.548;14.348;2022-12-24T08:44:33;5.70;;;2.73;;
17850;SDS011;9051;51.548;14.348;2022-12-24T08:47:06;10.43;;;2.87;;
17850;SDS011;9051;51.548;14.348;2022-12-24T08:49:38;10.30;;;3.37;;
17850;SDS011;9051;51.548;14.348;2022-12-24T08:52:10;9.53;;;3.07;;
17850;SDS011;9051;51.548;14.348;2022-12-24T08:54:42;8.97;;;2.90;;
17850;SDS011;9051;51.548;14.348;2022-12-24T08:57:14;7.90;;;2.40;;
17850;SDS011;9051;51.548;14.348;2022-12-24T08:59:46;8.03;;;2.87;;
17850;SDS011;9051;51.548;14.348;2022-12-24T09:02:20;8.43;;;2.47;;
17850;SDS011;9051;51.548;14.348;2022-12-24T09:04:52;11.07;;;3.43;;
17850;SDS011;9051;51.548;14.348;2022-12-24T09:07:24;7.83;;;3.00;;
17850;SDS011;9051;51.548;14.348;2022-12-24T09:09:56;9.40;;;3.07;;
17850;SDS011;9051;51.548;14.348;2022-12-24T09:12:28;9.43;;;3.23;;
17850;SDS011;9051;51.548;14.348;2022-12-24T09:15:00;6.80;;;2.50;;
17850;SDS011;9051;51.548;14.348;2022-12-24T09:17:33;9.80;;;2.90;;
17850;SDS011;9051;51.548;14.348;2022-12-24T09:20:06;8.23;;;3.07;;
17850;SDS011;9051;51.548;14.348;2022-12-24T09:22:40;11.50;;;3.13;;
17850;SDS011;9051;51.548;14.348;2022-12-24T09:25:12;10.97;;;3.30;;
17850;SDS011;9051;51.548;14.348;2022-12-24T09:27:44;8.30;;;3.00;;
17850;SDS011;9051;51.548;14.348;2022-12-24T09:30:17;8.27;;;3.20;;
17850;SDS011;9051;51.548;14.348;2022-12-24T09:32:51;6.70;;;2.87;;
17850;SDS011;9051;51.548;14.348;2022-12-24T09:35:22;9.63;;;2.77;;
17850;SDS011;9051;51.548;14.348;2022-12-24T09:37:54;10.43;;;3.10;;
17850;SDS011;9051;51.548;14.348;2022-12-24T09:40:32;9.47;;;2.70;;
17850;SDS011;9051;51.548;14.348;2022-12-24T09:43:10;9.30;;;2.43;;
17850;SDS011;9051;51.548;14.348;2022-12-24T09:45:48;7.83;;;3.13;;
17850;SDS011;9051;51.548;14.348;2022-12-24T09:48:31;10.60;;;3.03;;
17850;SDS011;9051;51.548;14.348;2022-12-24T09:51:05;8.47;;;2.70;;
17850;SDS011;9051;51.548;14.348;2022-12-24T09:53:40;11.17;;;3.13;;
17850;SDS011;9051;51.548;14.348;2022-12-24T09:56:16;11.63;;;2.93;;
17850;SDS011;9051;51.548;14.348;2022-12-24T09:58:52;8.57;;;2.60;;
17850;SDS011;9051;51.548;14.348;2022-12-24T10:01:30;6.57;;;2.70;;
17850;SDS011;9051;51.548;14.348;2022-12-24T10:04:08;10.83;;;2.60;;
17850;SDS011;9051;51.548;14.348;2022-12-24T10:06:44;9.80;;;2.83;;
17850;SDS011;9051;51.548;14.348;2022-12-24T10:09:23;8.23;;;2.53;;
17850;SDS011;9051;51.548;14.348;2022-12-24T10:12:02;7.53;;;2.97;;
17850;SDS011;9051;51.548;14.348;2022-12-24T10:14:45;9.80;;;2.30;;
17850;SDS011;9051;51.548;14.348;2022-12-24T10:17:30;9.30;;;2.87;;
17850;SDS011;9051;51.548;14.348;2022-12-24T10:23:19;13.13;;;2.77;;
17850;SDS011;9051;51.548;14.348;2022-12-24T10:26:01;8.07;;;2.53;;
17850;SDS011;9051;51.548;14.348;2022-12-24T10:28:43;6.83;;;2.73;;
17850;SDS011;9051;51.548;14.348;2022-12-24T10:31:19;8.20;;;2.87;;
17850;SDS011;9051;51.548;14.348;2022-12-24T10:33:56;10.10;;;2.93;;
17850;SDS011;9051;51.548;14.348;2022-12-24T10:36:32;7.73;;;3.10;;
17850;SDS011;9051;51.548;14.348;2022-12-24T10:39:04;8.30;;;2.50;;
17850;SDS011;9051;51.548;14.348;2022-12-24T10:41:44;3.53;;;2.30;;
17850;SDS011;9051;51.548;14.348;2022-12-24T10:44:21;6.77;;;2.53;;
17850;SDS011;9051;51.548;14.348;2022-12-24T10:46:56;9.23;;;2.50;;
17850;SDS011;9051;51.548;14.348;2022-12-24T10:49:30;5.87;;;2.37;;
17850;SDS011;9051;51.548;14.348;2022-12-24T10:52:09;6.63;;;2.73;;
17850;SDS011;9051;51.548;14.348;2022-12-24T10:57:35;8.93;;;2.57;;
17850;SDS011;9051;51.548;14.348;2022-12-24T11:00:17;6.77;;;2.97;;
17850;SDS011;9051;51.548;14.348;2022-12-24T11:03:04;10.40;;;2.70;;
17850;SDS011;9051;51.548;14.348;2022-12-24T11:05:38;8.87;;;2.77;;
17850;SDS011;9051;51.548;14.348;2022-12-24T11:08:15;4.10;;;2.73;;
17850;SDS011;9051;51.548;14.348;2022-12-24T11:10:53;9.33;;;3.17;;
17850;SDS011;9051;51.548;14.348;2022-12-24T11:13:26;9.80;;;2.63;;
17850;SDS011;9051;51.548;14.348;2022-12-24T11:16:02;12.27;;;3.27;;
17850;SDS011;9051;51.548;14.348;2022-12-24T11:18:37;8.70;;;2.93;;
17850;SDS011;9051;51.548;14.348;2022-12-24T11:21:18;8.10;;;3.20;;
17850;SDS011;9051;51.548;14.348;2022-12-24T11:23:57;10.87;;;2.87;;
17850;SDS011;9051;51.548;14.348;2022-12-24T11:26:33;7.00;;;3.13;;
17850;SDS011;9051;51.548;14.348;2022-12-24T11:29:11;7.40;;;3.07;;
17850;SDS011;9051;51.548;14.348;2022-12-24T11:31:46;15.63;;;3.40;;
17850;SDS011;9051;51.548;14.348;2022-12-24T11:34:23;10.23;;;3.47;;
17850;SDS011;9051;51.548;14.348;2022-12-24T11:37:06;15.30;;;3.57;;
17850;SDS011;9051;51.548;14.348;2022-12-24T11:39:43;11.40;;;3.30;;
17850;SDS011;9051;51.548;14.348;2022-12-24T11:42:21;12.10;;;3.30;;
17850;SDS011;9051;51.548;14.348;2022-12-24T11:44:59;8.83;;;3.30;;
17850;SDS011;9051;51.548;14.348;2022-12-24T11:47:34;8.43;;;3.20;;
17850;SDS011;9051;51.548;14.348;2022-12-24T11:50:24;9.67;;;3.00;;
17850;SDS011;9051;51.548;14.348;2022-12-24T11:52:59;8.60;;;2.67;;
17850;SDS011;9051;51.548;14.348;2022-12-24T11:55:41;10.70;;;2.97;;
17850;SDS011;9051;51.548;14.348;2022-12-24T11:58:19;9.17;;;3.20;;
17850;SDS011;9051;51.548;14.348;2022-12-24T12:00:57;13.40;;;3.70;;
17850;SDS011;9051;51.548;14.348;2022-12-24T12:03:37;11.17;;;3.13;;
17850;SDS011;9051;51.548;14.348;2022-12-24T12:06:22;13.23;;;3.17;;
17850;SDS011;9051;51.548;14.348;2022-12-24T12:08:59;6.53;;;2.63;;
17850;SDS011;9051;51.548;14.348;2022-12-24T12:11:36;11.53;;;3.60;;
17850;SDS011;9051;51.548;14.348;2022-12-24T12:14:12;6.80;;;2.93;;
17850;SDS011;9051;51.548;14.348;2022-12-24T12:16:50;9.67;;;2.87;;
17850;SDS011;9051;51.548;14.348;2022-12-24T12:19:35;11.03;;;2.77;;
17850;SDS011;9051;51.548;14.348;2022-12-24T12:22:15;9.70;;;3.10;;
17850;SDS011;9051;51.548;14.348;2022-12-24T12:24:54;9.67;;;2.90;;
17850;SDS011;9051;51.548;14.348;2022-12-24T12:27:31;10.33;;;3.07;;
17850;SDS011;9051;51.548;14.348;2022-12-24T12:30:09;6.97;;;2.73;;
17850;SDS011;9051;51.548;14.348;2022-12-24T12:32:47;9.67;;;3.07;;
17850;SDS011;9051;51.548;14.348;2022-12-24T12:35:24;8.23;;;2.63;;
17850;SDS011;9051;51.548;14.348;2022-12-24T12:38:00;11.57;;;3.53;;
17850;SDS011;9051;51.548;14.348;2022-12-24T12:40:38;8.30;;;2.70;;
17850;SDS011;9051;51.548;14.348;2022-12-24T12:43:24;8.27;;;2.97;;
17850;SDS011;9051;51.548;14.348;2022-12-24T12:46:10;13.03;;;3.30;;
17850;SDS011;9051;51.548;14.348;2022-12-24T12:48:54;9.67;;;3.00;;
17850;SDS011;9051;51.548;14.348;2022-12-24T12:51:49;11.40;;;3.37;;
17850;SDS011;9051;51.548;14.348;2022-12-24T12:54:31;9.63;;;2.80;;
17850;SDS011;9051;51.548;14.348;2022-12-24T12:57:14;9.57;;;2.70;;
17850;SDS011;9051;51.548;14.348;2022-12-24T12:59:51;12.17;;;2.67;;
17850;SDS011;9051;51.548;14.348;2022-12-24T13:05:48;11.17;;;2.77;;
17850;SDS011;9051;51.548;14.348;2022-12-24T13:08:47;11.23;;;3.60;;
17850;SDS011;9051;51.548;14.348;2022-12-24T13:11:38;6.87;;;2.80;;
17850;SDS011;9051;51.548;14.348;2022-12-24T13:14:38;6.63;;;2.77;;
17850;SDS011;9051;51.548;14.348;2022-12-24T13:17:31;7.43;;;2.77;;
17850;SDS011;9051;51.548;14.348;2022-12-24T13:20:23;7.93;;;2.87;;
17850;SDS011;9051;51.548;14.348;2022-12-24T13:22:59;10.53;;;2.80;;
17850;SDS011;9051;51.548;14.348;2022-12-24T13:25:34;9.87;;;2.90;;
17850;SDS011;9051;51.548;14.348;2022-12-24T13:28:16;9.33;;;2.63;;
17850;SDS011;9051;51.548;14.348;2022-12-24T13:31:26;11.43;;;2.90;;
17850;SDS011;9051;51.548;14.348;2022-12-24T13:34:01;10.90;;;2.70;;
17850;SDS011;9051;51.548;14.348;2022-12-24T13:42:50;9.60;;;2.77;;
17850;SDS011;9051;51.548;14.348;2022-12-24T13:45:43;8.40;;;2.50;;
17850;SDS011;9051;51.548;14.348;2022-12-24T13:48:29;7.83;;;2.40;;
17850;SDS011;9051;51.548;14.348;2022-12-24T13:53:56;9.63;;;2.90;;
17850;SDS011;9051;51.548;14.348;2022-12-24T13:56:30;6.10;;;2.30;;
17850;SDS011;9051;51.548;14.348;2022-12-24T13:59:10;7.43;;;2.33;;
17850;SDS011;9051;51.548;14.348;2022-12-24T14:01:51;6.73;;;2.50;;
17850;SDS011;9051;51.548;14.348;2022-12-24T14:04:24;7.27;;;2.40;;
17850;SDS011;9051;51.548;14.348;2022-12-24T14:07:03;10.40;;;2.90;;
17850;SDS011;9051;51.548;14.348;2022-12-24T14:09:35;6.63;;;2.27;;
17850;SDS011;9051;51.548;14.348;2022-12-24T14:12:15;8.27;;;2.60;;
17850;SDS011;9051;51.548;14.348;2022-12-24T14:18:07;9.00;;;3.43;;
17850;SDS011;9051;51.548;14.348;2022-12-24T14:20:39;4.97;;;2.60;;
17850;SDS011;9051;51.548;14.348;2022-12-24T14:23:19;7.77;;;2.70;;
17850;SDS011;9051;51.548;14.348;2022-12-24T14:26:00;5.17;;;2.63;;
17850;SDS011;9051;51.548;14.348;2022-12-24T14:28:34;5.70;;;2.33;;
17850;SDS011;9051;51.548;14.348;2022-12-24T14:31:13;6.20;;;2.50;;
17850;SDS011;9051;51.548;14.348;2022-12-24T14:33:49;6.47;;;2.30;;
17850;SDS011;9051;51.548;14.348;2022-12-24T14:36:21;5.33;;;2.33;;
17850;SDS011;9051;51.548;14.348;2022-12-24T14:38:55;6.53;;;2.40;;
17850;SDS011;9051;51.548;14.348;2022-12-24T14:41:33;8.03;;;2.77;;
17850;SDS011;9051;51.548;14.348;2022-12-24T14:44:14;10.13;;;3.33;;
17850;SDS011;9051;51.548;14.348;2022-12-24T14:46:55;10.73;;;3.63;;
17850;SDS011;9051;51.548;14.348;2022-12-24T14:49:35;4.87;;;2.40;;
17850;SDS011;9051;51.548;14.348;2022-12-24T14:52:17;7.03;;;2.87;;
17850;SDS011;9051;51.548;14.348;2022-12-24T14:54:58;5.53;;;2.30;;
17850;SDS011;9051;51.548;14.348;2022-12-24T14:57:30;7.13;;;2.40;;
17850;SDS011;9051;51.548;14.348;2022-12-24T15:00:15;4.80;;;2.20;;
17850;SDS011;9051;51.548;14.348;2022-12-24T15:02:49;5.70;;;2.00;;
17850;SDS011;9051;51.548;14.348;2022-12-24T15:05:22;6.13;;;2.27;;
17850;SDS011;9051;51.548;14.348;2022-12-24T15:07:58;5.70;;;2.30;;
17850;SDS011;9051;51.548;14.348;2022-12-24T15:10:34;5.37;;;2.50;;
17850;SDS011;9051;51.548;14.348;2022-12-24T15:13:08;5.20;;;2.00;;
17850;SDS011;9051;51.548;14.348;2022-12-24T15:15:49;6.40;;;2.60;;
17850;SDS011;9051;51.548;14.348;2022-12-24T15:18:25;5.17;;;2.30;;
17850;SDS011;9051;51.548;14.348;2022-12-24T15:21:00;6.67;;;2.20;;
17850;SDS011;9051;51.548;14.348;2022-12-24T15:23:35;4.93;;;2.67;;
17850;SDS011;9051;51.548;14.348;2022-12-24T15:26:15;6.20;;;2.50;;
17850;SDS011;9051;51.548;14.348;2022-12-24T15:28:52;6.60;;;2.30;;
17850;SDS011;9051;51.548;14.348;2022-12-24T15:31:26;4.10;;;2.23;;
17850;SDS011;9051;51.548;14.348;2022-12-24T15:33:59;7.40;;;2.33;;
17850;SDS011;9051;51.548;14.348;2022-12-24T15:36:31;3.23;;;1.80;;
17850;SDS011;9051;51.548;14.348;2022-12-24T15:39:06;6.93;;;2.10;;
17850;SDS011;9051;51.548;14.348;2022-12-24T15:41:46;5.77;;;2.33;;
17850;SDS011;9051;51.548;14.348;2022-12-24T15:44:38;5.27;;;2.20;;
17850;SDS011;9051;51.548;14.348;2022-12-24T15:47:14;7.50;;;2.03;;
17850;SDS011;9051;51.548;14.348;2022-12-24T15:49:49;6.20;;;2.47;;
17850;SDS011;9051;51.548;14.348;2022-12-24T15:52:22;5.67;;;2.20;;
17850;SDS011;9051;51.548;14.348;2022-12-24T15:54:56;6.00;;;2.20;;
17850;SDS011;9051;51.548;14.348;2022-12-24T15:57:30;4.37;;;1.97;;
17850;SDS011;9051;51.548;14.348;2022-12-24T16:00:18;3.80;;;1.87;;
17850;SDS011;9051;51.548;14.348;2022-12-24T16:02:53;3.80;;;1.83;;
17850;SDS011;9051;51.548;14.348;2022-12-24T16:05:31;3.63;;;2.00;;
17850;SDS011;9051;51.548;14.348;2022-12-24T16:08:18;4.03;;;2.27;;
17850;SDS011;9051;51.548;14.348;2022-12-24T16:11:11;6.13;;;2.10;;
17850;SDS011;9051;51.548;14.348;2022-12-24T16:14:03;4.83;;;1.90;;
17850;SDS011;9051;51.548;14.348;2022-12-24T16:16:41;3.73;;;2.27;;
17850;SDS011;9051;51.548;14.348;2022-12-24T16:19:17;5.60;;;2.03;;
17850;SDS011;9051;51.548;14.348;2022-12-24T16:21:53;3.07;;;1.87;;
17850;SDS011;9051;51.548;14.348;2022-12-24T16:24:27;5.43;;;2.20;;
17850;SDS011;9051;51.548;14.348;2022-12-24T16:27:01;5.63;;;2.13;;
17850;SDS011;9051;51.548;14.348;2022-12-24T16:29:42;6.70;;;2.37;;
17850;SDS011;9051;51.548;14.348;2022-12-24T16:32:20;3.23;;;2.10;;
17850;SDS011;9051;51.548;14.348;2022-12-24T16:35:00;5.47;;;1.97;;
17850;SDS011;9051;51.548;14.348;2022-12-24T16:37:33;3.07;;;1.90;;
17850;SDS011;9051;51.548;14.348;2022-12-24T16:40:05;4.07;;;2.00;;
17850;SDS011;9051;51.548;14.348;2022-12-24T16:42:43;4.13;;;1.90;;
17850;SDS011;9051;51.548;14.348;2022-12-24T16:45:34;3.87;;;2.00;;
17850;SDS011;9051;51.548;14.348;2022-12-24T16:48:06;5.43;;;2.03;;
17850;SDS011;9051;51.548;14.348;2022-12-24T16:50:41;5.03;;;2.20;;
17850;SDS011;9051;51.548;14.348;2022-12-24T16:53:13;9.43;;;2.30;;
17850;SDS011;9051;51.548;14.348;2022-12-24T16:55:46;2.60;;;1.70;;
17850;SDS011;9051;51.548;14.348;2022-12-24T16:58:20;6.17;;;2.07;;
17850;SDS011;9051;51.548;14.348;2022-12-24T17:00:53;4.63;;;2.00;;
17850;SDS011;9051;51.548;14.348;2022-12-24T17:03:25;3.60;;;1.40;;
17850;SDS011;9051;51.548;14.348;2022-12-24T17:05:57;3.17;;;1.50;;
17850;SDS011;9051;51.548;14.348;2022-12-24T17:08:29;3.73;;;1.60;;
17850;SDS011;9051;51.548;14.348;2022-12-24T17:11:01;5.10;;;1.87;;
17850;SDS011;9051;51.548;14.348;2022-12-24T17:13:33;2.87;;;1.60;;
17850;SDS011;9051;51.548;14.348;2022-12-24T17:16:07;1.73;;;1.50;;
17850;SDS011;9051;51.548;14.348;2022-12-24T17:18:39;3.07;;;1.43;;
17850;SDS011;9051;51.548;14.348;2022-12-24T17:21:11;4.17;;;1.73;;
17850;SDS011;9051;51.548;14.348;2022-12-24T17:23:43;5.43;;;1.80;;
17850;SDS011;9051;51.548;14.348;2022-12-24T17:26:15;6.10;;;2.13;;
17850;SDS011;9051;51.548;14.348;2022-12-24T17:28:51;2.63;;;1.43;;
17850;SDS011;9051;51.548;14.348;2022-12-24T17:31:25;3.53;;;1.93;;
17850;SDS011;9051;51.548;14.348;2022-12-24T17:33:58;5.17;;;1.83;;
17850;SDS011;9051;51.548;14.348;2022-12-24T17:36:31;5.43;;;2.10;;
17850;SDS011;9051;51.548;14.348;2022-12-24T17:39:03;4.93;;;1.90;;
17850;SDS011;9051;51.548;14.348;2022-12-24T17:41:35;4.20;;;1.70;;
17850;SDS011;9051;51.548;14.348;2022-12-24T17:44:07;3.37;;;1.50;;
17850;SDS011;9051;51.548;14.348;2022-12-24T17:46:43;3.10;;;1.53;;
17850;SDS011;9051;51.548;14.348;2022-12-24T17:49:15;3.17;;;1.63;;
17850;SDS011;9051;51.548;14.348;2022-12-24T17:51:47;3.03;;;1.50;;
17850;SDS011;9051;51.548;14.348;2022-12-24T17:54:19;4.93;;;1.60;;
17850;SDS011;9051;51.548;14.348;2022-12-24T17:56:52;3.23;;;1.57;;
17850;SDS011;9051;51.548;14.348;2022-12-24T17:59:24;4.03;;;1.50;;
17850;SDS011;9051;51.548;14.348;2022-12-24T18:01:57;3.97;;;1.60;;
17850;SDS011;9051;51.548;14.348;2022-12-24T18:04:29;2.67;;;1.40;;
17850;SDS011;9051;51.548;14.348;2022-12-24T18:07:01;5.57;;;1.63;;
17850;SDS011;9051;51.548;14.348;2022-12-24T18:09:33;2.77;;;1.57;;
17850;SDS011;9051;51.548;14.348;2022-12-24T18:12:05;3.20;;;1.50;;